Time;durP1;ratioP1;P1;durP2;ratioP2;P2;SDS_P1;SDS_P2;PMS_P1;PMS_P2;Temp;Humidity;BMP_temperature;BMP_pressure;BME280_temperature;BME280_humidity;BME280_pressure;Samples;Min_cycle;Max_cycle;Signal;HPM_P1;HPM_P2
2022/06/02 00:02:24;;;;;;;0.70;0.70;;;;;;;;;;4976313;28;20058;-73
2022/06/02 00:05:20;;;;;;;0.93;0.90;;;;;;;;;;4976758;28;20058;-73
2022/06/02 00:07:54;;;;;;;1.45;0.70;;;;;;;;;;4961364;28;20050;-73
2022/06/02 00:10:30;;;;;;;1.75;0.80;;;;;;;;;;4960479;28;20050;-74
2022/06/02 00:13:08;;;;;;;1.00;0.88;;;;;;;;;;4960115;28;20054;-72
2022/06/02 00:15:45;;;;;;;3.08;0.82;;;;;;;;;;4962504;28;20458;-72
2022/06/02 00:18:32;;;;;;;1.15;0.60;;;;;;;;;;4979733;28;20050;-73
2022/06/02 00:21:24;;;;;;;0.70;0.63;;;;;;;;;;4995552;28;20054;-73
2022/06/02 00:24:06;;;;;;;1.90;0.87;;;;;;;;;;4978792;28;20061;-73
2022/06/02 00:27:01;;;;;;;1.10;0.90;;;;;;;;;;4980086;28;20061;-73
2022/06/02 00:29:30;;;;;;;1.15;0.90;;;;;;;;;;4960696;28;20054;-73
2022/06/02 00:32:15;;;;;;;1.90;0.70;;;;;;;;;;4960091;28;20058;-74
2022/06/02 00:34:48;;;;;;;3.15;0.70;;;;;;;;;;4975960;28;20152;-74
2022/06/02 00:37:42;;;;;;;0.95;0.65;;;;;;;;;;4993183;28;20487;-74
2022/06/02 00:40:10;;;;;;;1.38;0.63;;;;;;;;;;4946500;28;20057;-73
2022/06/02 00:43:01;;;;;;;0.80;0.70;;;;;;;;;;4963063;28;20045;-74
2022/06/02 00:45:28;;;;;;;1.67;0.70;;;;;;;;;;4982147;28;20479;-74
2022/06/02 00:48:10;;;;;;;1.52;0.90;;;;;;;;;;4979146;28;20058;-74
2022/06/02 00:50:54;;;;;;;1.35;0.80;;;;;;;;;;4995512;28;20045;-74
2022/06/02 00:53:41;;;;;;;1.90;0.70;;;;;;;;;;4979088;28;20422;-74
2022/06/02 00:59:16;;;;;;;3.80;0.90;;;;;;;;;;4993066;28;20061;-73
2022/06/02 01:01:42;;;;;;;1.45;0.90;;;;;;;;;;4975205;28;20093;-73
2022/06/02 01:04:11;;;;;;;1.67;0.90;;;;;;;;;;4975630;28;20494;-72
2022/06/02 01:06:57;;;;;;;3.58;1.15;;;;;;;;;;4975772;28;20450;-72
2022/06/02 01:09:46;;;;;;;1.75;0.85;;;;;;;;;;4991385;28;20058;-73
2022/06/02 01:12:49;;;;;;;0.98;0.90;;;;;;;;;;4994650;28;20060;-73
2022/06/02 01:15:25;;;;;;;1.85;0.70;;;;;;;;;;4970304;28;20065;-73
2022/06/02 01:18:10;;;;;;;1.90;0.80;;;;;;;;;;4975617;28;20077;-73
2022/06/02 01:21:04;;;;;;;1.00;0.68;;;;;;;;;;4975141;28;20062;-73
2022/06/02 01:23:59;;;;;;;1.05;0.88;;;;;;;;;;4993070;28;20058;-73
2022/06/02 01:26:38;;;;;;;2.00;0.85;;;;;;;;;;4994707;28;20052;-73
2022/06/02 01:29:04;;;;;;;1.20;0.68;;;;;;;;;;4994443;28;20061;-74
2022/06/02 01:31:34;;;;;;;1.60;0.80;;;;;;;;;;4994207;28;20056;-73
2022/06/02 01:34:07;;;;;;;1.48;0.80;;;;;;;;;;4994658;28;20046;-74
2022/06/02 01:36:56;;;;;;;2.72;1.02;;;;;;;;;;4984481;28;20074;-74
2022/06/02 01:39:41;;;;;;;1.17;1.00;;;;;;;;;;4977660;28;20052;-74
2022/06/02 01:42:37;;;;;;;1.77;0.90;;;;;;;;;;4979313;28;20054;-73
2022/06/02 01:45:40;;;;;;;1.45;0.77;;;;;;;;;;4979367;28;20050;-73
2022/06/02 01:48:39;;;;;;;1.73;0.80;;;;;;;;;;4979050;28;20057;-73
2022/06/02 01:51:14;;;;;;;2.10;0.82;;;;;;;;;;4916660;29;20048;-73
2022/06/02 01:53:44;;;;;;;2.35;0.90;;;;;;;;;;4916877;29;20052;-73
2022/06/02 01:56:20;;;;;;;1.20;0.90;;;;;;;;;;4986282;28;20069;-73
2022/06/02 01:59:02;;;;;;;0.98;0.80;;;;;;;;;;4979852;28;20050;-73
2022/06/02 02:01:41;;;;;;;0.77;0.70;;;;;;;;;;4962670;28;20050;-73
2022/06/02 02:04:20;;;;;;;1.88;0.90;;;;;;;;;;4963233;28;20050;-73
2022/06/02 02:07:05;;;;;;;1.80;0.77;;;;;;;;;;4978786;28;20590;-73
2022/06/02 02:09:50;;;;;;;2.70;1.08;;;;;;;;;;4978549;28;20518;-73
2022/06/02 02:12:54;;;;;;;1.00;0.70;;;;;;;;;;4997532;28;20045;-74
2022/06/02 02:15:37;;;;;;;0.85;0.77;;;;;;;;;;4998271;28;20050;-74
2022/06/02 02:18:19;;;;;;;3.22;1.10;;;;;;;;;;4997969;28;20058;-74
2022/06/02 02:21:02;;;;;;;1.77;1.00;;;;;;;;;;4997793;28;20060;-74
2022/06/02 02:23:46;;;;;;;1.30;1.17;;;;;;;;;;4982752;28;20133;-74
2022/06/02 02:26:45;;;;;;;2.92;0.90;;;;;;;;;;4965425;28;20050;-74
2022/06/02 02:29:33;;;;;;;1.27;1.00;;;;;;;;;;4942818;28;20055;-74
2022/06/02 02:32:13;;;;;;;2.65;0.82;;;;;;;;;;4962166;28;20089;-74
2022/06/02 02:35:02;;;;;;;4.00;0.90;;;;;;;;;;4962048;28;20054;-74
2022/06/02 02:37:34;;;;;;;0.77;0.75;;;;;;;;;;4966836;28;20046;-74
2022/06/02 02:40:03;;;;;;;2.53;1.05;;;;;;;;;;4981946;28;20049;-74
2022/06/02 02:42:41;;;;;;;1.52;0.73;;;;;;;;;;4981301;28;20196;-73
2022/06/02 02:45:13;;;;;;;2.28;0.85;;;;;;;;;;4981609;28;20049;-73
2022/06/02 02:47:39;;;;;;;3.05;1.27;;;;;;;;;;4981250;28;20058;-74
2022/06/02 02:50:25;;;;;;;2.58;0.93;;;;;;;;;;4997273;28;20673;-74
2022/06/02 02:53:19;;;;;;;1.65;0.80;;;;;;;;;;4981433;28;20053;-74
2022/06/02 02:56:03;;;;;;;1.77;0.80;;;;;;;;;;4947864;28;20059;-73
2022/06/02 02:58:40;;;;;;;3.15;0.90;;;;;;;;;;4946581;28;20054;-73
2022/06/02 03:01:18;;;;;;;0.85;0.77;;;;;;;;;;4946492;28;20097;-73
2022/06/02 03:04:00;;;;;;;2.05;0.80;;;;;;;;;;4947060;28;20117;-73
2022/06/02 03:06:31;;;;;;;1.08;0.82;;;;;;;;;;4977594;28;20054;-73
2022/06/02 03:09:16;;;;;;;1.50;0.80;;;;;;;;;;4977550;28;20054;-74
2022/06/02 03:12:03;;;;;;;1.27;1.00;;;;;;;;;;4977322;28;20637;-73
2022/06/02 03:15:01;;;;;;;4.47;1.02;;;;;;;;;;4961337;28;20050;-73
2022/06/02 03:17:43;;;;;;;4.05;1.60;;;;;;;;;;4977348;28;20577;-73
2022/06/02 03:20:32;;;;;;;1.13;1.02;;;;;;;;;;4995911;28;20053;-73
2022/06/02 03:23:17;;;;;;;2.47;2.22;;;;;;;;;;4996792;28;20054;-74
2022/06/02 03:25:51;;;;;;;9.18;6.82;;;;;;;;;;4996817;28;20050;-73
2022/06/02 03:28:22;;;;;;;6.57;4.07;;;;;;;;;;4965170;28;20053;-73
2022/06/02 03:31:05;;;;;;;2.47;2.10;;;;;;;;;;4980034;28;20403;-73
2022/06/02 03:34:02;;;;;;;2.58;1.73;;;;;;;;;;4961181;28;20097;-73
2022/06/02 03:37:06;;;;;;;1.05;1.00;;;;;;;;;;4961478;28;20415;-72
2022/06/02 03:39:42;;;;;;;2.70;1.00;;;;;;;;;;4977162;28;20050;-74
2022/06/02 03:42:46;;;;;;;2.28;1.48;;;;;;;;;;4961594;28;20484;-74
2022/06/02 03:45:57;;;;;;;1.20;1.10;;;;;;;;;;4978890;28;20504;-74
2022/06/02 03:49:03;;;;;;;2.08;0.93;;;;;;;;;;4960616;28;20137;-74
2022/06/02 03:51:36;;;;;;;2.67;1.10;;;;;;;;;;4952652;28;20510;-73
2022/06/02 03:54:18;;;;;;;2.20;1.15;;;;;;;;;;4996330;28;20097;-73
2022/06/02 03:57:13;;;;;;;1.38;1.27;;;;;;;;;;4995968;28;20060;-73
2022/06/02 03:59:52;;;;;;;1.42;1.00;;;;;;;;;;4981907;28;20054;-73
2022/06/02 04:02:31;;;;;;;1.80;1.00;;;;;;;;;;4976136;28;20050;-74
2022/06/02 04:04:58;;;;;;;1.67;1.00;;;;;;;;;;4961184;28;20098;-74
2022/06/02 04:07:51;;;;;;;1.20;1.10;;;;;;;;;;4980313;28;20052;-77
2022/06/02 04:10:39;;;;;;;2.53;1.55;;;;;;;;;;4969264;28;20065;-79
2022/06/02 04:13:37;;;;;;;1.60;1.00;;;;;;;;;;4978526;28;20058;-79
2022/06/02 04:16:25;;;;;;;2.53;1.05;;;;;;;;;;4995600;28;20058;-79
2022/06/02 04:22:12;;;;;;;3.45;1.00;;;;;;;;;;4988071;28;20053;-80
2022/06/02 04:24:52;;;;;;;1.52;1.15;;;;;;;;;;4981437;28;20050;-79
2022/06/02 04:27:48;;;;;;;4.72;1.10;;;;;;;;;;4946387;28;20054;-80
2022/06/02 04:30:38;;;;;;;1.98;1.10;;;;;;;;;;4961456;28;20060;-78
2022/06/02 04:33:19;;;;;;;1.33;1.00;;;;;;;;;;4963147;28;20136;-80
2022/06/02 04:36:04;;;;;;;2.35;1.08;;;;;;;;;;4945805;28;20042;-79
2022/06/02 04:38:38;;;;;;;1.10;0.98;;;;;;;;;;4945361;28;20516;-78
2022/06/02 04:41:21;;;;;;;1.77;1.27;;;;;;;;;;4975936;28;20125;-79
2022/06/02 04:44:03;;;;;;;1.63;1.15;;;;;;;;;;4945170;28;20061;-79
2022/06/02 04:46:39;;;;;;;1.65;1.13;;;;;;;;;;4946440;28;20057;-79
2022/06/02 04:49:17;;;;;;;1.90;1.02;;;;;;;;;;4976701;28;20076;-80
2022/06/02 04:52:05;;;;;;;3.42;1.15;;;;;;;;;;4971399;28;20050;-79
2022/06/02 04:54:51;;;;;;;8.15;2.30;;;;;;;;;;4961385;28;20046;-80
2022/06/02 04:57:42;;;;;;;2.85;1.20;;;;;;;;;;4979410;28;20058;-82
2022/06/02 05:00:24;;;;;;;3.85;1.48;;;;;;;;;;4995818;28;20080;-82
2022/06/02 05:02:59;;;;;;;3.90;1.55;;;;;;;;;;4979276;28;20060;-79
2022/06/02 05:05:43;;;;;;;2.53;1.60;;;;;;;;;;4978752;28;20060;-78
2022/06/02 05:08:30;;;;;;;1.38;1.10;;;;;;;;;;4979072;28;20473;-78
2022/06/02 05:11:15;;;;;;;2.90;1.40;;;;;;;;;;4994690;28;20490;-78
2022/06/02 05:14:11;;;;;;;1.33;1.23;;;;;;;;;;4994187;28;20073;-78
2022/06/02 05:17:04;;;;;;;3.72;1.15;;;;;;;;;;4987159;28;20192;-78
2022/06/02 05:19:43;;;;;;;1.70;1.40;;;;;;;;;;4971590;28;20142;-80
2022/06/02 05:22:25;;;;;;;1.92;1.77;;;;;;;;;;4987398;28;20140;-80
2022/06/02 05:25:01;;;;;;;1.70;1.10;;;;;;;;;;4968765;28;20138;-80
2022/06/02 05:27:53;;;;;;;3.05;1.42;;;;;;;;;;4986069;28;20046;-80
2022/06/02 05:30:38;;;;;;;7.13;1.50;;;;;;;;;;4994073;28;20502;-79
2022/06/02 05:33:24;;;;;;;4.22;1.27;;;;;;;;;;4996571;28;20054;-79
2022/06/02 05:36:07;;;;;;;7.53;1.50;;;;;;;;;;4997466;28;20042;-79
2022/06/02 05:39:02;;;;;;;2.80;1.40;;;;;;;;;;4982087;28;20046;-79
2022/06/02 05:41:44;;;;;;;3.33;1.30;;;;;;;;;;4969096;28;20092;-77
2022/06/02 05:44:35;;;;;;;3.75;1.83;;;;;;;;;;4993002;28;20060;-76
2022/06/02 05:47:21;;;;;;;2.70;1.40;;;;;;;;;;4992562;28;20065;-76
2022/06/02 05:49:56;;;;;;;5.90;1.33;;;;;;;;;;4977272;28;20409;-76
2022/06/02 05:52:44;;;;;;;3.42;1.30;;;;;;;;;;4968773;28;20315;-76
2022/06/02 05:55:26;;;;;;;2.40;1.30;;;;;;;;;;4958692;28;20054;-77
2022/06/02 05:57:56;;;;;;;6.38;1.38;;;;;;;;;;4974089;28;20051;-77
2022/06/02 06:00:25;;;;;;;5.47;1.30;;;;;;;;;;4973797;28;20485;-76
2022/06/02 06:03:32;;;;;;;7.38;1.80;;;;;;;;;;4973022;28;20054;-76
2022/06/02 06:06:28;;;;;;;3.35;1.40;;;;;;;;;;4949215;28;20098;-76
2022/06/02 06:09:01;;;;;;;3.38;1.35;;;;;;;;;;4993510;28;20061;-79
2022/06/02 06:11:43;;;;;;;4.50;1.40;;;;;;;;;;5001894;28;20054;-81
2022/06/02 06:14:17;;;;;;;7.57;1.70;;;;;;;;;;4993433;28;20057;-80
2022/06/02 06:17:03;;;;;;;2.42;1.38;;;;;;;;;;4995121;28;20053;-82
2022/06/02 06:19:48;;;;;;;2.25;1.35;;;;;;;;;;4988297;28;20042;-84
2022/06/02 06:22:37;;;;;;;2.38;1.20;;;;;;;;;;5018392;28;20053;-82
2022/06/02 06:25:07;;;;;;;1.98;1.13;;;;;;;;;;5011414;28;20092;-83
2022/06/02 06:27:40;;;;;;;5.05;1.52;;;;;;;;;;5006195;28;20049;-84
2022/06/02 06:30:16;;;;;;;2.90;1.50;;;;;;;;;;5012359;28;20101;-82
2022/06/02 06:33:11;;;;;;;6.57;1.45;;;;;;;;;;5002392;28;20085;-78
2022/06/02 06:36:03;;;;;;;2.58;1.30;;;;;;;;;;5004871;28;20077;-78
2022/06/02 06:38:36;;;;;;;1.65;1.25;;;;;;;;;;4975976;28;20054;-77
2022/06/02 06:41:22;;;;;;;4.78;1.85;;;;;;;;;;5020088;28;20034;-78
2022/06/02 06:44:23;;;;;;;4.45;1.52;;;;;;;;;;5027130;28;20042;-77
2022/06/02 06:46:54;;;;;;;1.63;1.50;;;;;;;;;;5001808;28;20432;-78
2022/06/02 06:49:54;;;;;;;1.65;1.40;;;;;;;;;;5003493;28;20132;-79
2022/06/02 06:52:46;;;;;;;2.40;1.35;;;;;;;;;;4971549;28;20062;-77
2022/06/02 06:55:18;;;;;;;1.98;1.27;;;;;;;;;;4989152;28;20145;-79
2022/06/02 06:58:07;;;;;;;6.35;1.98;;;;;;;;;;5006071;28;20125;-80
2022/06/02 07:00:59;;;;;;;3.45;1.60;;;;;;;;;;4974173;28;20052;-78
2022/06/02 07:03:42;;;;;;;2.20;1.40;;;;;;;;;;5002642;28;20080;-78
2022/06/02 07:06:15;;;;;;;2.72;1.40;;;;;;;;;;4993793;28;20050;-78
2022/06/02 07:08:48;;;;;;;1.67;1.40;;;;;;;;;;4993975;28;20505;-78
2022/06/02 07:14:47;;;;;;;4.97;1.60;;;;;;;;;;5021312;28;20049;-78
2022/06/02 07:17:41;;;;;;;2.20;1.45;;;;;;;;;;4983756;28;20077;-79
2022/06/02 07:20:31;;;;;;;3.58;1.48;;;;;;;;;;5006682;28;20425;-78
2022/06/02 07:23:05;;;;;;;4.75;1.30;;;;;;;;;;4989067;28;20539;-78
2022/06/02 07:25:35;;;;;;;1.40;1.30;;;;;;;;;;4988945;28;20577;-78
2022/06/02 07:28:10;;;;;;;3.50;1.50;;;;;;;;;;5024654;28;20088;-78
2022/06/02 07:30:48;;;;;;;1.33;1.23;;;;;;;;;;4990566;28;20049;-78
2022/06/02 07:33:26;;;;;;;2.05;1.30;;;;;;;;;;4991531;28;20092;-78
2022/06/02 07:36:15;;;;;;;2.45;1.88;;;;;;;;;;4982686;28;20050;-78
2022/06/02 07:38:45;;;;;;;1.42;1.10;;;;;;;;;;5001611;28;20486;-79
2022/06/02 07:41:15;;;;;;;2.78;1.15;;;;;;;;;;5004858;28;20681;-78
2022/06/02 07:43:57;;;;;;;3.03;1.30;;;;;;;;;;5002629;28;20050;-83
2022/06/02 07:46:42;;;;;;;2.75;1.63;;;;;;;;;;4992266;28;20073;-78
2022/06/02 07:49:33;;;;;;;1.67;0.93;;;;;;;;;;5007035;28;20413;-78
2022/06/02 07:52:17;;;;;;;1.20;1.10;;;;;;;;;;5005312;28;20506;-77
2022/06/02 07:54:47;;;;;;;1.65;1.20;;;;;;;;;;5006747;28;20138;-78
2022/06/02 07:57:23;;;;;;;1.20;1.10;;;;;;;;;;5003137;28;20498;-78
2022/06/02 08:00:16;;;;;;;2.15;1.95;;;;;;;;;;4991055;28;20154;-78
2022/06/02 08:03:08;;;;;;;3.10;1.27;;;;;;;;;;4993267;28;20046;-78
2022/06/02 08:06:04;;;;;;;2.95;1.58;;;;;;;;;;5019499;28;20128;-78
2022/06/02 08:09:19;;;;;;;1.63;1.40;;;;;;;;;;5008948;28;20061;-80
2022/06/02 08:12:14;;;;;;;5.50;1.42;;;;;;;;;;5004225;28;20413;-79
2022/06/02 08:15:04;;;;;;;4.32;1.40;;;;;;;;;;5003942;28;20117;-78
2022/06/02 08:17:48;;;;;;;2.10;1.33;;;;;;;;;;4978791;28;20538;-79
2022/06/02 08:20:18;;;;;;;2.35;1.00;;;;;;;;;;4993766;28;20057;-81
2022/06/02 08:22:48;;;;;;;3.50;1.13;;;;;;;;;;5024601;28;20065;-81
2022/06/02 08:25:23;;;;;;;2.72;1.15;;;;;;;;;;5008124;28;20413;-83
2022/06/02 08:27:53;;;;;;;1.73;1.08;;;;;;;;;;4992952;28;20042;-81
2022/06/02 08:30:26;;;;;;;3.60;1.20;;;;;;;;;;5002723;28;20132;-82
2022/06/02 08:33:15;;;;;;;1.60;1.10;;;;;;;;;;4978081;28;20049;-84
2022/06/02 08:35:59;;;;;;;2.50;1.30;;;;;;;;;;5025690;28;20049;-82
2022/06/02 08:38:46;;;;;;;1.98;1.00;;;;;;;;;;5023370;28;20050;-82
2022/06/02 08:41:31;;;;;;;1.63;1.20;;;;;;;;;;5005251;28;20050;-79
2022/06/02 08:44:23;;;;;;;1.50;0.90;;;;;;;;;;5010854;28;20061;-79
2022/06/02 08:47:21;;;;;;;2.45;1.02;;;;;;;;;;5020229;28;20084;-80
2022/06/02 08:50:21;;;;;;;1.30;1.20;;;;;;;;;;5007224;28;20053;-80
2022/06/02 08:53:03;;;;;;;1.90;1.35;;;;;;;;;;5004583;28;20405;-80
2022/06/02 08:55:57;;;;;;;1.35;1.05;;;;;;;;;;5003527;28;20046;-79
2022/06/02 08:58:46;;;;;;;8.25;1.13;;;;;;;;;;4992387;28;20461;-79
2022/06/02 09:01:37;;;;;;;2.53;1.20;;;;;;;;;;5003512;28;20053;-79
2022/06/02 09:04:58;;;;;;;1.13;1.00;;;;;;;;;;4995420;28;20046;-77
2022/06/02 09:07:54;;;;;;;2.80;1.10;;;;;;;;;;4990499;28;20045;-79
2022/06/02 09:10:39;;;;;;;1.77;1.20;;;;;;;;;;5000824;28;20411;-78
2022/06/02 09:13:34;;;;;;;0.90;0.88;;;;;;;;;;4988224;28;20045;-78
2022/06/02 09:16:32;;;;;;;1.17;1.08;;;;;;;;;;5001767;28;20399;-79
2022/06/02 09:19:14;;;;;;;2.00;1.02;;;;;;;;;;4994243;28;20577;-79
2022/06/02 09:21:54;;;;;;;3.30;1.33;;;;;;;;;;5000244;28;20502;-79
2022/06/02 09:24:47;;;;;;;2.13;0.98;;;;;;;;;;4971779;28;20057;-78
2022/06/02 09:27:52;;;;;;;2.00;1.00;;;;;;;;;;4996510;28;20054;-78
2022/06/02 09:30:56;;;;;;;1.50;1.02;;;;;;;;;;5055038;22;20316;-65
2022/06/02 09:33:51;;;;;;;3.08;1.10;;;;;;;;;;5037444;28;20053;-64
2022/06/02 09:36:55;;;;;;;0.88;0.70;;;;;;;;;;5041008;28;20076;-64
2022/06/02 09:39:46;;;;;;;1.38;0.80;;;;;;;;;;5037365;28;20099;-64
2022/06/02 09:42:15;;;;;;;1.40;1.05;;;;;;;;;;5030731;28;20127;-64
2022/06/02 09:45:14;;;;;;;1.00;0.90;;;;;;;;;;5032035;28;20392;-65
2022/06/02 09:48:11;;;;;;;1.20;1.10;;;;;;;;;;5034722;28;20067;-65
2022/06/02 09:50:56;;;;;;;3.00;1.00;;;;;;;;;;5035874;28;20060;-64
2022/06/02 09:53:38;;;;;;;1.42;1.10;;;;;;;;;;5038543;28;20060;-64
2022/06/02 09:56:11;;;;;;;3.55;1.00;;;;;;;;;;5052480;28;20056;-64
2022/06/02 09:58:53;;;;;;;2.35;0.98;;;;;;;;;;5040000;28;20045;-64
2022/06/02 10:01:45;;;;;;;1.48;0.90;;;;;;;;;;5025106;28;20503;-65
2022/06/02 10:04:35;;;;;;;2.78;1.00;;;;;;;;;;5044075;28;20056;-65
2022/06/02 10:07:13;;;;;;;1.88;0.88;;;;;;;;;;5040111;28;20052;-66
2022/06/02 10:10:02;;;;;;;1.58;0.80;;;;;;;;;;5035629;28;20419;-64
2022/06/02 10:15:21;;;;;;;1.15;0.80;;;;;;;;;;5043089;28;20431;-65
2022/06/02 10:18:06;;;;;;;1.05;0.90;;;;;;;;;;5040231;28;20057;-64
2022/06/02 10:21:00;;;;;;;2.25;0.73;;;;;;;;;;5058153;28;20049;-64
2022/06/02 10:23:45;;;;;;;2.13;0.80;;;;;;;;;;5039147;28;20525;-64
2022/06/02 10:26:20;;;;;;;1.83;1.15;;;;;;;;;;5037554;28;20049;-64
2022/06/02 10:28:55;;;;;;;2.65;1.05;;;;;;;;;;5039884;28;20048;-64
2022/06/02 10:31:37;;;;;;;1.02;0.90;;;;;;;;;;5041494;28;20565;-64
2022/06/02 10:34:42;;;;;;;1.77;0.95;;;;;;;;;;5040106;28;20052;-64
2022/06/02 10:37:18;;;;;;;2.55;1.00;;;;;;;;;;5041299;28;20042;-65
2022/06/02 10:39:50;;;;;;;1.65;0.75;;;;;;;;;;5037131;28;20474;-64
2022/06/02 10:42:22;;;;;;;1.95;1.10;;;;;;;;;;5040983;28;20056;-65
2022/06/02 10:45:13;;;;;;;1.13;1.00;;;;;;;;;;5037486;28;20106;-65
2022/06/02 10:48:07;;;;;;;0.75;0.75;;;;;;;;;;5039506;28;20122;-65
2022/06/02 10:50:46;;;;;;;0.77;0.60;;;;;;;;;;5039614;28;20048;-66
2022/06/02 10:53:19;;;;;;;3.13;0.95;;;;;;;;;;5055407;28;20045;-65
2022/06/02 10:56:08;;;;;;;1.42;0.80;;;;;;;;;;5040108;28;20487;-65
2022/06/02 10:59:01;;;;;;;1.10;0.77;;;;;;;;;;5041064;28;20053;-65
2022/06/02 11:01:50;;;;;;;1.45;0.90;;;;;;;;;;5043215;28;20100;-70
2022/06/02 11:04:29;;;;;;;1.60;0.90;;;;;;;;;;5043402;28;20060;-65
2022/06/02 11:07:43;;;;;;;1.98;0.90;;;;;;;;;;5038980;28;20061;-65
2022/06/02 11:10:27;;;;;;;1.90;0.80;;;;;;;;;;4960602;28;20063;-65
2022/06/02 11:13:22;;;;;;;1.83;0.90;;;;;;;;;;4961510;28;20450;-65
2022/06/02 11:15:57;;;;;;;1.45;0.80;;;;;;;;;;5029342;28;20060;-65
2022/06/02 11:18:29;;;;;;;0.90;0.90;;;;;;;;;;5035726;28;20052;-65
2022/06/02 11:21:27;;;;;;;3.97;1.00;;;;;;;;;;5039788;28;20469;-65
2022/06/02 11:24:18;;;;;;;1.30;0.85;;;;;;;;;;5040162;28;20098;-65
2022/06/02 11:27:09;;;;;;;2.80;1.10;;;;;;;;;;5040210;28;20443;-65
2022/06/02 11:29:44;;;;;;;1.38;0.80;;;;;;;;;;5039194;28;20056;-66
2022/06/02 11:32:36;;;;;;;1.80;1.02;;;;;;;;;;5038721;28;20053;-66
2022/06/02 11:35:25;;;;;;;2.50;0.85;;;;;;;;;;5054745;28;20053;-66
2022/06/02 11:38:13;;;;;;;1.67;0.88;;;;;;;;;;5054282;28;20507;-66
2022/06/02 11:40:57;;;;;;;0.68;0.60;;;;;;;;;;5035862;28;20492;-66
2022/06/02 11:43:59;;;;;;;0.88;0.80;;;;;;;;;;5037090;28;20053;-65
2022/06/02 11:47:03;;;;;;;1.83;0.80;;;;;;;;;;5035601;28;20045;-66
2022/06/02 11:50:11;;;;;;;2.30;0.90;;;;;;;;;;5037643;28;20053;-65
2022/06/02 11:52:43;;;;;;;1.42;1.00;;;;;;;;;;5041673;28;20049;-66
2022/06/02 11:55:45;;;;;;;1.77;0.90;;;;;;;;;;5039088;28;20056;-66
2022/06/02 11:58:27;;;;;;;1.70;1.05;;;;;;;;;;5038563;28;20059;-66
2022/06/02 12:01:12;;;;;;;1.27;0.80;;;;;;;;;;5034818;28;20061;-65
2022/06/02 12:04:00;;;;;;;1.05;0.70;;;;;;;;;;5039436;28;20433;-66
2022/06/02 12:06:52;;;;;;;1.50;1.00;;;;;;;;;;5039597;28;20049;-65
2022/06/02 12:09:34;;;;;;;0.83;0.77;;;;;;;;;;5032302;28;20052;-66
2022/06/02 12:12:01;;;;;;;1.73;0.80;;;;;;;;;;5038305;28;20044;-66
2022/06/02 12:14:37;;;;;;;2.47;0.90;;;;;;;;;;5040212;28;20045;-66
2022/06/02 12:17:34;;;;;;;1.58;0.82;;;;;;;;;;5038245;28;20118;-70
2022/06/02 12:20:20;;;;;;;1.80;1.02;;;;;;;;;;5054841;28;20049;-66
2022/06/02 12:23:05;;;;;;;0.98;0.77;;;;;;;;;;5037610;28;20048;-65
2022/06/02 12:26:00;;;;;;;2.60;1.08;;;;;;;;;;5041675;28;20045;-65
2022/06/02 12:28:44;;;;;;;1.30;0.88;;;;;;;;;;5036315;28;20056;-65
2022/06/02 12:31:30;;;;;;;2.42;0.80;;;;;;;;;;5039056;28;20060;-66
2022/06/02 12:34:37;;;;;;;0.82;0.75;;;;;;;;;;5035167;28;20060;-65
2022/06/02 12:37:13;;;;;;;1.00;0.90;;;;;;;;;;5038255;28;20042;-67
2022/06/02 12:40:25;;;;;;;1.85;0.88;;;;;;;;;;5035121;28;20494;-64
2022/06/02 12:43:13;;;;;;;3.97;1.70;;;;;;;;;;5005375;28;20139;-64
2022/06/02 12:45:46;;;;;;;;;;;;;;;;;;5041927;28;20045;-64
2022/06/02 12:48:43;;;;;;;1.92;0.88;;;;;;;;;;5033437;28;19925;-65
2022/06/02 12:51:28;;;;;;;1.60;0.80;;;;;;;;;;5053303;28;20037;-65
2022/06/02 12:54:32;;;;;;;0.55;0.55;;;;;;;;;;5037566;28;20079;-65
2022/06/02 12:57:16;;;;;;;2.85;0.90;;;;;;;;;;5030035;28;20050;-65
2022/06/02 13:00:13;;;;;;;1.33;0.90;;;;;;;;;;5049074;28;20106;-63
2022/06/02 13:03:14;;;;;;;1.17;0.75;;;;;;;;;;5039779;28;20056;-63
2022/06/02 13:06:03;;;;;;;1.73;0.90;;;;;;;;;;5036375;28;20053;-65
2022/06/02 13:08:59;;;;;;;0.95;0.75;;;;;;;;;;5040234;28;20050;-64
2022/06/02 13:11:42;;;;;;;1.20;0.80;;;;;;;;;;5035551;28;20049;-63
2022/06/02 13:14:19;;;;;;;3.80;1.20;;;;;;;;;;5029055;28;20064;-63
2022/06/02 13:17:09;;;;;;;2.70;0.90;;;;;;;;;;5034708;28;20065;-63
2022/06/02 13:20:07;;;;;;;0.70;0.70;;;;;;;;;;5024541;28;20137;-64
2022/06/02 13:22:55;;;;;;;0.70;0.63;;;;;;;;;;5037722;28;21485;-63
2022/06/02 13:25:47;;;;;;;1.15;0.73;;;;;;;;;;5038629;28;20076;-64
2022/06/02 13:28:55;;;;;;;2.83;1.08;;;;;;;;;;5038961;28;20052;-65
2022/06/02 13:31:28;;;;;;;1.55;0.70;;;;;;;;;;4988023;28;20051;-65
2022/06/02 13:34:11;;;;;;;3.35;0.77;;;;;;;;;;4987763;28;20065;-62
2022/06/02 13:36:50;;;;;;;3.22;0.88;;;;;;;;;;5021295;28;20123;-65
2022/06/02 13:39:24;;;;;;;1.98;0.90;;;;;;;;;;5044647;28;20136;-65
2022/06/02 13:42:20;;;;;;;4.05;1.00;;;;;;;;;;5040819;28;20099;-66
2022/06/02 13:45:12;;;;;;;1.67;1.00;;;;;;;;;;5036111;28;20059;-65
2022/06/02 13:48:16;;;;;;;2.55;1.00;;;;;;;;;;5042168;28;20051;-65
2022/06/02 13:51:13;;;;;;;1.20;0.77;;;;;;;;;;5042975;28;20420;-63
2022/06/02 13:59:48;;;;;;;3.78;0.90;;;;;;;;;;5039245;28;20538;-65
2022/06/02 14:02:33;;;;;;;2.58;0.90;;;;;;;;;;5028476;28;20078;-65
2022/06/02 14:05:27;;;;;;;0.77;0.70;;;;;;;;;;5041341;28;20051;-65
2022/06/02 14:08:13;;;;;;;2.35;0.80;;;;;;;;;;5039548;28;20052;-65
2022/06/02 14:10:43;;;;;;;1.65;0.65;;;;;;;;;;5038429;28;20049;-65
2022/06/02 14:13:29;;;;;;;2.70;0.75;;;;;;;;;;5041983;28;20053;-65
2022/06/02 14:16:10;;;;;;;1.17;0.80;;;;;;;;;;5055565;28;20066;-65
2022/06/02 14:19:16;;;;;;;1.13;0.80;;;;;;;;;;5044568;28;20050;-65
2022/06/02 14:22:20;;;;;;;1.60;0.95;;;;;;;;;;5027696;28;20094;-65
2022/06/02 14:25:02;;;;;;;0.90;0.80;;;;;;;;;;5041863;28;20037;-65
2022/06/02 14:27:51;;;;;;;1.20;1.05;;;;;;;;;;5040251;28;20535;-65
2022/06/02 14:30:19;;;;;;;1.20;0.73;;;;;;;;;;5043578;28;20087;-65
2022/06/02 14:33:14;;;;;;;1.67;0.93;;;;;;;;;;5021630;28;20458;-65
2022/06/02 14:35:44;;;;;;;3.03;1.23;;;;;;;;;;5039761;28;20397;-65
2022/06/02 14:38:28;;;;;;;2.17;0.93;;;;;;;;;;5039590;28;20056;-66
2022/06/02 14:41:22;;;;;;;2.95;1.05;;;;;;;;;;5043417;28;20057;-66
2022/06/02 14:44:14;;;;;;;2.15;0.77;;;;;;;;;;5031335;28;20071;-77
2022/06/02 14:47:18;;;;;;;4.30;0.80;;;;;;;;;;5048591;28;20056;-75
2022/06/02 14:49:55;;;;;;;2.15;1.15;;;;;;;;;;5053667;28;20067;-75
2022/06/02 14:52:43;;;;;;;1.55;1.00;;;;;;;;;;5040022;28;20071;-74
2022/06/02 14:55:16;;;;;;;1.77;0.88;;;;;;;;;;5043074;28;20042;-67
2022/06/02 14:57:59;;;;;;;1.23;0.90;;;;;;;;;;5041606;28;20046;-74
2022/06/02 15:00:49;;;;;;;3.08;1.17;;;;;;;;;;5025714;28;20053;-73
2022/06/02 15:03:34;;;;;;;3.17;1.10;;;;;;;;;;5054641;28;20087;-74
2022/06/02 15:06:22;;;;;;;3.83;1.20;;;;;;;;;;5043129;28;20057;-67
2022/06/02 15:09:10;;;;;;;1.70;1.00;;;;;;;;;;5039016;28;20052;-64
2022/06/02 15:12:14;;;;;;;2.92;0.95;;;;;;;;;;5058826;28;20057;-67
2022/06/02 15:15:07;;;;;;;1.88;0.98;;;;;;;;;;5048308;28;20045;-71
2022/06/02 15:17:42;;;;;;;3.40;1.17;;;;;;;;;;5022128;28;20049;-72
2022/06/02 15:20:25;;;;;;;1.02;0.82;;;;;;;;;;5036594;28;20044;-67
2022/06/02 15:23:32;;;;;;;2.15;1.00;;;;;;;;;;5046096;28;20061;-64
2022/06/02 15:26:12;;;;;;;2.10;0.98;;;;;;;;;;5034686;28;20045;-65
2022/06/02 15:29:17;;;;;;;1.40;0.90;;;;;;;;;;5040618;28;20094;-65
2022/06/02 15:31:58;;;;;;;4.20;1.00;;;;;;;;;;5061290;22;20027;-63
2022/06/02 15:34:40;;;;;;;2.65;0.90;;;;;;;;;;5003001;28;20145;-63
2022/06/02 15:37:26;;;;;;;1.10;1.00;;;;;;;;;;5020194;28;20385;-67
2022/06/02 15:40:12;;;;;;;3.05;0.82;;;;;;;;;;5008161;28;20132;-65
2022/06/02 15:42:43;;;;;;;5.68;1.10;;;;;;;;;;5022264;28;20050;-66
2022/06/02 15:45:22;;;;;;;0.90;0.88;;;;;;;;;;5014128;28;20042;-68
2022/06/02 15:48:04;;;;;;;3.35;0.98;;;;;;;;;;5018251;28;20071;-67
2022/06/02 15:50:48;;;;;;;1.00;0.90;;;;;;;;;;5023466;28;20050;-67
2022/06/02 15:53:29;;;;;;;1.23;0.98;;;;;;;;;;5009802;28;20565;-68
2022/06/02 15:56:15;;;;;;;4.70;1.20;;;;;;;;;;5020576;28;20144;-68
2022/06/02 15:58:58;;;;;;;1.52;0.80;;;;;;;;;;5019517;28;20075;-67
2022/06/02 16:01:44;;;;;;;2.03;1.15;;;;;;;;;;5002783;28;20050;-67
2022/06/02 16:04:32;;;;;;;2.47;1.10;;;;;;;;;;5019938;28;20053;-67
2022/06/02 16:07:24;;;;;;;1.40;1.10;;;;;;;;;;5022232;28;20038;-67
2022/06/02 16:13:40;;;;;;;1.90;1.40;;;;;;;;;;5022250;28;20080;-67
2022/06/02 16:16:22;;;;;;;2.22;1.45;;;;;;;;;;4994690;28;20056;-68
2022/06/02 16:18:52;;;;;;;5.20;1.58;;;;;;;;;;5021523;28;20111;-68
2022/06/02 16:21:22;;;;;;;1.33;1.23;;;;;;;;;;5022733;28;20049;-67
2022/06/02 16:24:26;;;;;;;1.33;1.20;;;;;;;;;;5020678;28;20081;-65
2022/06/02 16:27:03;;;;;;;4.82;1.42;;;;;;;;;;5020659;28;20049;-66
2022/06/02 16:29:35;;;;;;;2.40;1.50;;;;;;;;;;5018603;28;20045;-65
2022/06/02 16:32:11;;;;;;;2.13;1.00;;;;;;;;;;5015697;28;20180;-66
2022/06/02 16:35:05;;;;;;;3.35;1.10;;;;;;;;;;5015409;28;20498;-66
2022/06/02 16:37:40;;;;;;;3.47;1.25;;;;;;;;;;5015573;28;20054;-66
2022/06/02 16:40:57;;;;;;;3.00;1.08;;;;;;;;;;5002550;28;20056;-65
2022/06/02 16:43:32;;;;;;;1.20;1.00;;;;;;;;;;4995919;28;20467;-66
2022/06/02 16:46:20;;;;;;;1.00;1.00;;;;;;;;;;5022228;28;20423;-66
2022/06/02 16:49:05;;;;;;;2.42;1.00;;;;;;;;;;5018570;28;20444;-66
2022/06/02 16:52:00;;;;;;;3.15;1.10;;;;;;;;;;5018060;28;20111;-66
2022/06/02 16:54:46;;;;;;;2.15;1.20;;;;;;;;;;5005742;28;20053;-67